Decoded Metar for UAII (CHIMKENT in KAZAKHSTAN) (IATA:CIT) | Meteo·Mobile Aviation Weather
aviador You're here:

UAII Decoded Metar

CHIMKENT in KAZAKHSTAN
Report Time2019-10-22 13:00:00
UTC Time2019-10-22 13:31:37
Flight Rules vfr VFR
Wind020° at 4 kt
W.Decomp.*RWY 10: 0.3 kt HW 4 kt LCW
Visibility9999 m
Phenomena:N/A
Clouds:N/A
Expected CloudBase > 6,400 ft AGL from Temp-Dew spread
CeilingNone
Temp14°C (ISA +2)
Dew Point-2°C (33% RH)
AAT10.3°C
QNH1023 hPa
Density Alt1,332 ft
Elevation1,385 ft
Report Wrong Elevation
Raw Report
UAII 221300Z 02002MPS CAVOK 14/M02 Q1023 R10/0///70 NOSIG RMK
QFE732/0976=

Extra information for UAII:More info

Metar Taf Metar & Taf Last 4 Metars F.Rules Stats Wind Profile Meteogram Temp Stats Airport Information Weather charts Add Link Nearby VenuesMetar ALERT Operation Metar Decoded Social comments